createdAt,value
2023-02-19T00:01:12.609Z,10.8
2023-02-19T00:03:10.118Z,10.7
2023-02-19T00:05:15.577Z,10.7
2023-02-19T00:07:13.142Z,10.8
2023-02-19T00:09:10.741Z,10.7
2023-02-19T00:11:33.044Z,10.8
2023-02-19T00:13:30.627Z,10.7
2023-02-19T00:15:28.268Z,10.8
2023-02-19T00:17:33.728Z,10.7
2023-02-19T00:19:31.340Z,10.8
2023-02-19T00:25:25.632Z,10.7
2023-02-19T00:27:23.212Z,10.8
2023-02-19T00:29:20.845Z,10.7
2023-02-19T00:31:26.401Z,10.7
2023-02-19T00:33:23.925Z,10.8
2023-02-19T00:35:21.495Z,10.7
2023-02-19T00:37:19.109Z,10.7
2023-02-19T00:39:16.712Z,10.7
2023-02-19T00:41:14.315Z,10.8
2023-02-19T00:43:11.917Z,10.7
2023-02-19T00:47:15.012Z,10.8
2023-02-19T00:49:12.604Z,10.7
2023-02-19T00:57:03.005Z,10.7
2023-02-19T01:01:06.098Z,10.7
2023-02-19T01:03:03.722Z,10.6
2023-02-19T01:06:04.102Z,10.7
2023-02-19T01:08:01.696Z,10.6
2023-02-19T01:09:59.297Z,10.7
2023-02-19T01:12:04.766Z,10.6
2023-02-19T01:14:02.379Z,10.6
2023-02-19T01:16:00.005Z,10.7
2023-02-19T01:17:57.554Z,10.6
2023-02-19T01:19:55.159Z,10.7
2023-02-19T01:21:52.788Z,10.6
2023-02-19T01:25:55.902Z,10.6
2023-02-19T01:27:53.506Z,10.6
2023-02-19T01:33:46.289Z,10.5
2023-02-19T01:35:43.896Z,10.6
2023-02-19T01:37:41.482Z,10.5
2023-02-19T01:39:47.001Z,10.6
2023-02-19T01:41:44.569Z,10.6
2023-02-19T01:43:42.141Z,10.6
2023-02-19T01:45:39.761Z,10.6
2023-02-19T01:47:37.343Z,10.6
2023-02-19T01:49:34.940Z,10.6
2023-02-19T01:51:32.567Z,10.6
2023-02-19T01:55:35.680Z,10.5
2023-02-19T01:57:33.255Z,10.6
2023-02-19T01:58:36.001Z,10.6
2023-02-19T02:00:33.634Z,10.5
2023-02-19T02:02:31.191Z,10.6
2023-02-19T02:04:28.789Z,10.6
2023-02-19T02:06:34.285Z,10.5
2023-02-19T02:08:31.891Z,10.5
2023-02-19T02:12:27.085Z,10.6
2023-02-19T02:14:24.646Z,10.6
2023-02-19T02:16:22.274Z,10.5
2023-02-19T02:18:19.857Z,10.5
2023-02-19T02:20:25.389Z,10.5
2023-02-19T02:22:22.964Z,10.4
2023-02-19T02:24:20.588Z,10.4
2023-02-19T02:26:18.146Z,10.4
2023-02-19T02:28:15.762Z,10.5
2023-02-19T02:30:13.396Z,10.4
2023-02-19T02:32:10.996Z,10.5
2023-02-19T02:34:16.463Z,10.4
2023-02-19T02:36:14.056Z,10.4
2023-02-19T02:38:11.638Z,10.5
2023-02-19T02:44:04.463Z,10.4
2023-02-19T02:46:02.061Z,10.4
2023-02-19T02:48:07.507Z,10.4
2023-02-19T02:50:05.166Z,10.4
2023-02-19T02:52:02.699Z,10.4
2023-02-19T02:53:05.415Z,10.4
2023-02-19T02:55:03.044Z,10.3
2023-02-19T02:57:00.645Z,10.4
2023-02-19T02:58:58.210Z,10.4
2023-02-19T03:01:03.776Z,10.3
2023-02-19T03:03:01.296Z,10.4
2023-02-19T03:04:58.929Z,10.3
2023-02-19T03:06:56.517Z,10.4
2023-02-19T03:08:54.082Z,10.4
2023-02-19T03:10:51.731Z,10.5
2023-02-19T03:12:49.253Z,10.4
2023-02-19T03:14:54.765Z,10.4
2023-02-19T03:16:52.469Z,10.3
2023-02-19T03:22:45.119Z,10.3
2023-02-19T03:24:42.711Z,10.3
2023-02-19T03:26:40.474Z,10.3
2023-02-19T03:28:45.794Z,10.3
2023-02-19T03:30:43.397Z,10.4
2023-02-19T03:32:41.011Z,10.4
2023-02-19T03:34:38.605Z,10.3
2023-02-19T03:36:36.182Z,10.4
2023-02-19T03:38:33.788Z,10.3
2023-02-19T03:40:31.409Z,10.3
2023-02-19T03:42:36.887Z,10.3
2023-02-19T03:46:32.087Z,10.3
2023-02-19T03:48:52.886Z,10.3
2023-02-19T03:50:50.487Z,10.3
2023-02-19T03:52:48.083Z,10.3
2023-02-19T03:54:53.586Z,10.2
2023-02-19T03:56:51.215Z,10.3
2023-02-19T03:58:48.764Z,10.3
2023-02-19T04:00:46.388Z,10.3
2023-02-19T04:02:43.988Z,10.3
2023-02-19T04:04:41.600Z,10.3
2023-02-19T04:10:42.281Z,10.1
2023-02-19T04:12:39.882Z,10.2
2023-02-19T04:14:37.473Z,10.1
2023-02-19T04:16:35.147Z,10.1
2023-02-19T04:18:32.643Z,10.1
2023-02-19T04:20:30.257Z,10.2
2023-02-19T04:22:35.733Z,10.1
2023-02-19T04:24:33.369Z,10.1
2023-02-19T04:26:30.969Z,10.1
2023-02-19T04:28:28.562Z,10.1
2023-02-19T04:32:23.761Z,10.2
2023-02-19T04:34:21.366Z,10
2023-02-19T04:36:26.858Z,10
2023-02-19T04:38:24.468Z,10.1
2023-02-19T04:40:22.046Z,10.2
2023-02-19T04:43:22.386Z,10
2023-02-19T04:45:19.991Z,10
2023-02-19T04:47:17.577Z,10.1
2023-02-19T04:49:23.083Z,10
2023-02-19T04:55:15.886Z,10.1
2023-02-19T04:57:13.494Z,10.1
2023-02-19T04:59:11.090Z,10.1
2023-02-19T05:03:14.223Z,9.9
2023-02-19T05:05:11.779Z,10.1
2023-02-19T05:11:04.575Z,9.9
2023-02-19T05:13:02.183Z,10
2023-02-19T05:19:02.854Z,10
2023-02-19T05:21:00.480Z,9.9
2023-02-19T05:22:58.072Z,9.8
2023-02-19T05:24:55.682Z,9.9
2023-02-19T05:26:53.264Z,9.9
2023-02-19T05:30:56.359Z,9.9
2023-02-19T05:32:54.076Z,9.9
2023-02-19T05:34:51.568Z,9.9
2023-02-19T05:35:54.282Z,9.9
2023-02-19T05:37:51.897Z,9.8
2023-02-19T05:39:49.497Z,9.9
2023-02-19T05:41:47.073Z,10
2023-02-19T05:43:52.560Z,9.8
2023-02-19T05:45:50.113Z,9.8
2023-02-19T05:47:47.713Z,9.8
2023-02-19T05:49:45.312Z,9.8
2023-02-19T05:51:42.903Z,9.9
2023-02-19T05:53:40.505Z,9.9
2023-02-19T06:03:36.378Z,9.9
2023-02-19T06:07:33.034Z,9.8
2023-02-19T06:15:31.286Z,9.8
2023-02-19T06:17:28.861Z,9.8
2023-02-19T06:23:21.606Z,9.8
2023-02-19T06:25:27.105Z,9.7
2023-02-19T06:30:25.054Z,9.7
2023-02-19T06:32:22.704Z,9.7
2023-02-19T06:34:20.205Z,9.8
2023-02-19T06:38:23.324Z,9.7
2023-02-19T06:42:19.246Z,9.7
2023-02-19T06:44:16.082Z,9.7
2023-02-19T06:48:11.298Z,9.7
2023-02-19T06:50:08.876Z,9.8
2023-02-19T06:52:14.377Z,9.7
2023-02-19T06:54:11.966Z,9.8
2023-02-19T06:56:09.561Z,9.7
2023-02-19T06:58:07.149Z,9.7
2023-02-19T07:00:04.766Z,9.7
2023-02-19T07:02:02.359Z,9.7
2023-02-19T07:06:05.443Z,9.7
2023-02-19T07:08:03.027Z,9.7
2023-02-19T07:10:00.605Z,9.7
2023-02-19T07:11:58.215Z,9.6
2023-02-19T07:13:55.808Z,9.7
2023-02-19T07:15:53.412Z,9.6
2023-02-19T07:17:50.988Z,9.6
2023-02-19T07:19:56.490Z,9.6
2023-02-19T07:21:54.072Z,9.7
2023-02-19T07:23:51.681Z,9.6
2023-02-19T07:26:18.570Z,9.6
2023-02-19T07:28:16.174Z,9.5
2023-02-19T07:30:13.787Z,9.7
2023-02-19T07:32:19.267Z,9.5
2023-02-19T07:34:16.833Z,9.7
2023-02-19T07:38:12.051Z,9.6
2023-02-19T07:42:07.230Z,9.6
2023-02-19T07:44:04.817Z,9.6
2023-02-19T07:46:10.272Z,9.6
2023-02-19T07:52:03.076Z,9.7
2023-02-19T08:01:58.902Z,9.6
2023-02-19T08:03:56.488Z,9.6
2023-02-19T08:05:54.061Z,9.7
2023-02-19T08:07:51.671Z,9.7
2023-02-19T08:09:49.236Z,9.7
2023-02-19T08:11:46.841Z,9.7
2023-02-19T08:13:52.320Z,9.7
2023-02-19T08:15:49.928Z,9.7
2023-02-19T08:18:50.280Z,9.7
2023-02-19T08:20:47.830Z,9.8
2023-02-19T08:22:45.425Z,9.7
2023-02-19T08:24:43.044Z,9.8
2023-02-19T08:26:48.499Z,9.7
2023-02-19T08:28:46.099Z,9.7
2023-02-19T08:30:43.813Z,9.8
2023-02-19T08:36:36.445Z,9.7
2023-02-19T08:38:34.029Z,9.7
2023-02-19T08:42:37.105Z,9.8
2023-02-19T08:44:34.667Z,9.9
2023-02-19T08:46:34.089Z,9.9
2023-02-19T08:48:29.859Z,9.8
2023-02-19T08:50:27.448Z,9.9
2023-02-19T08:52:25.035Z,9.9
2023-02-19T08:54:30.549Z,9.8
2023-02-19T08:56:28.103Z,9.8
2023-02-19T09:00:23.323Z,9.6
2023-02-19T09:08:21.532Z,9.5
2023-02-19T09:10:19.113Z,9.6
2023-02-19T09:12:16.688Z,9.5
2023-02-19T09:13:19.434Z,9.5
2023-02-19T09:15:17.039Z,9.5
2023-02-19T09:17:14.631Z,9.4
2023-02-19T09:19:12.198Z,9.4
2023-02-19T09:23:15.257Z,9.4
2023-02-19T09:25:12.843Z,9.4
2023-02-19T09:27:10.455Z,9.3
2023-02-19T09:29:08.074Z,9.4
2023-02-19T09:31:05.677Z,9.4
2023-02-19T09:33:03.201Z,9.3
2023-02-19T09:35:08.712Z,8.9
2023-02-19T09:37:06.330Z,8.9
2023-02-19T09:39:03.887Z,8.7
2023-02-19T09:41:01.476Z,8.6
2023-02-19T09:43:00.926Z,8.7
2023-02-19T09:44:56.655Z,8.7
2023-02-19T09:46:54.251Z,8.7
2023-02-19T09:50:57.368Z,8.7
2023-02-19T09:52:54.961Z,8.6
2023-02-19T09:54:52.524Z,8.7
2023-02-19T09:56:50.138Z,8.7
2023-02-19T09:58:47.752Z,8.6
2023-02-19T10:00:45.335Z,8.6
2023-02-19T10:07:49.125Z,8.5
2023-02-19T10:09:46.325Z,8.5
2023-02-19T10:11:43.911Z,8.6
2023-02-19T10:17:44.559Z,8.5
2023-02-19T10:19:42.131Z,8.5
2023-02-19T10:21:39.705Z,8.5
2023-02-19T10:23:37.291Z,8.5
2023-02-19T10:25:34.884Z,8.6
2023-02-19T10:27:32.470Z,8.5
2023-02-19T10:29:37.981Z,8.3
2023-02-19T10:33:33.156Z,8.4
2023-02-19T10:35:30.767Z,8.5
2023-02-19T10:37:28.343Z,8.4
2023-02-19T10:39:25.957Z,8.4
2023-02-19T10:41:23.506Z,8.4
2023-02-19T10:43:29.000Z,8.5
2023-02-19T10:45:26.598Z,8.3
2023-02-19T10:47:24.150Z,8.4
2023-02-19T10:49:21.754Z,8.5
2023-02-19T10:53:16.924Z,8.5
2023-02-19T10:55:14.562Z,8.6
2023-02-19T11:01:15.197Z,8.6
2023-02-19T11:07:33.745Z,8.5
2023-02-19T11:11:36.808Z,8.5
2023-02-19T11:13:34.399Z,8.6
2023-02-19T11:15:31.980Z,8.7
2023-02-19T11:17:29.564Z,8.7
2023-02-19T11:19:27.157Z,8.8
2023-02-19T11:21:24.715Z,8.8
2023-02-19T11:23:30.179Z,8.7
2023-02-19T11:25:27.777Z,8.8
2023-02-19T11:27:25.364Z,8.8
2023-02-19T11:29:22.963Z,8.8
2023-02-19T11:33:18.166Z,8.9
2023-02-19T11:39:18.809Z,8.8
2023-02-19T11:41:16.378Z,8.8
2023-02-19T11:43:13.959Z,8.8
2023-02-19T11:45:11.556Z,8.8
2023-02-19T11:49:08.203Z,8.9
2023-02-19T11:51:13.670Z,8.8
2023-02-19T11:53:11.267Z,8.7
2023-02-19T11:55:08.838Z,8.8
2023-02-19T11:56:11.582Z,8.6
2023-02-19T11:58:09.170Z,8.6
2023-02-19T12:02:04.375Z,8.7
2023-02-19T12:08:04.999Z,8.5
2023-02-19T12:10:03.236Z,8.5
2023-02-19T12:12:00.851Z,8.3
2023-02-19T12:13:58.428Z,8.3
2023-02-19T12:18:01.956Z,8.2
2023-02-19T12:19:59.141Z,8.4
2023-02-19T12:21:56.726Z,8.3
2023-02-19T12:23:54.299Z,8.4
2023-02-19T12:25:51.893Z,8.3
2023-02-19T12:27:49.482Z,8.2
2023-02-19T12:29:47.049Z,8.2
2023-02-19T12:33:50.130Z,8.1
2023-02-19T12:39:42.910Z,8.3
2023-02-19T12:41:40.471Z,8.3
2023-02-19T12:43:38.067Z,8.3
2023-02-19T12:47:41.132Z,8.3
2023-02-19T12:49:38.718Z,8.2
2023-02-19T12:50:41.458Z,8.2
2023-02-19T12:52:39.025Z,8.3
2023-02-19T12:54:36.615Z,8.5
2023-02-19T12:58:39.717Z,8.7
2023-02-19T13:00:37.314Z,8.7
2023-02-19T13:06:30.062Z,8.6
2023-02-19T13:08:27.652Z,8.4
2023-02-19T13:10:25.237Z,8.3
2023-02-19T13:12:30.693Z,8.4
2023-02-19T13:14:28.294Z,8.5
2023-02-19T13:16:25.940Z,8.6
2023-02-19T13:18:23.474Z,8.8
2023-02-19T13:20:21.047Z,8.7
2023-02-19T13:22:18.651Z,8.9
2023-02-19T13:24:16.224Z,8.8
2023-02-19T13:26:21.727Z,8.8
2023-02-19T13:28:19.307Z,8.8
2023-02-19T13:30:16.957Z,8.8
2023-02-19T13:32:14.498Z,8.8
2023-02-19T13:34:12.072Z,9
2023-02-19T13:36:09.651Z,8.9
2023-02-19T13:40:12.715Z,9.1
2023-02-19T13:42:10.302Z,9.1
2023-02-19T13:44:07.878Z,9.1
2023-02-19T13:45:10.633Z,9.2
2023-02-19T13:47:08.214Z,9.1
2023-02-19T13:49:05.785Z,9.2
2023-02-19T13:51:03.386Z,9
2023-02-19T13:53:08.862Z,9
2023-02-19T13:55:06.471Z,9
2023-02-19T13:57:04.058Z,8.9
2023-02-19T13:59:01.660Z,8.9
2023-02-19T14:00:59.229Z,8.9
2023-02-19T14:02:56.817Z,9
2023-02-19T14:04:54.445Z,9
2023-02-19T14:06:59.929Z,9
2023-02-19T14:08:57.509Z,9
2023-02-19T14:10:55.116Z,9
2023-02-19T14:14:50.311Z,9.2
2023-02-19T14:16:47.893Z,9.2
2023-02-19T14:18:45.454Z,9.3
2023-02-19T14:22:48.540Z,9.4
2023-02-19T14:26:43.713Z,9.3
2023-02-19T14:28:41.304Z,9.5
2023-02-19T14:30:38.987Z,9.5
2023-02-19T14:32:36.490Z,9.6
2023-02-19T14:34:41.980Z,9.6
2023-02-19T14:36:39.590Z,9.6
2023-02-19T14:38:37.149Z,9.6
2023-02-19T14:41:04.089Z,9.7
2023-02-19T14:43:01.665Z,9.6
2023-02-19T14:44:59.264Z,9.8
2023-02-19T14:47:04.796Z,9.8
2023-02-19T14:49:02.391Z,9.7
2023-02-19T14:50:59.983Z,9.7
2023-02-19T14:52:57.620Z,9.7
2023-02-19T14:58:50.366Z,9.7
2023-02-19T15:06:48.670Z,9.6
2023-02-19T15:08:46.251Z,9.6
2023-02-19T15:10:43.803Z,9.7
2023-02-19T15:12:41.392Z,9.6
2023-02-19T15:14:46.887Z,9.7
2023-02-19T15:16:44.519Z,9.7
2023-02-19T15:18:42.077Z,9.6
2023-02-19T15:20:39.676Z,9.6
2023-02-19T15:22:37.283Z,9.5
2023-02-19T15:24:34.886Z,9.4
2023-02-19T15:26:32.460Z,9.4
2023-02-19T15:28:37.962Z,9.3
2023-02-19T15:30:35.747Z,9.3
2023-02-19T15:32:33.155Z,9.4
2023-02-19T15:37:31.067Z,9.4
2023-02-19T15:39:28.671Z,9.4
2023-02-19T15:43:31.763Z,9.3
2023-02-19T15:45:29.332Z,9.3
2023-02-19T15:47:29.342Z,9.3
2023-02-19T15:49:24.537Z,9.3
2023-02-19T15:51:22.128Z,9.2
2023-02-19T15:53:19.700Z,9.2
2023-02-19T15:55:25.212Z,9.3
2023-02-19T15:57:22.800Z,9.3
2023-02-19T15:59:20.355Z,9.2
2023-02-19T16:01:17.963Z,9.2
2023-02-19T16:05:13.128Z,9.2
2023-02-19T16:07:10.696Z,9.1
2023-02-19T16:13:11.315Z,9.5
2023-02-19T16:15:08.876Z,9.3
2023-02-19T16:21:01.662Z,9.2
2023-02-19T16:25:04.732Z,9.2
2023-02-19T16:27:02.314Z,9.1
2023-02-19T16:28:05.034Z,9.2
2023-02-19T16:32:00.317Z,9.3
2023-02-19T16:33:57.773Z,9.3
2023-02-19T16:36:03.281Z,9.2
2023-02-19T16:39:59.246Z,9.2
2023-02-19T16:45:52.070Z,9.1
2023-02-19T16:47:49.608Z,9.2
2023-02-19T16:51:52.651Z,9.1
2023-02-19T16:55:47.817Z,9.2
2023-02-19T16:59:42.976Z,9.2
2023-02-19T17:01:40.535Z,9
2023-02-19T17:03:46.053Z,9
2023-02-19T17:05:43.604Z,9
2023-02-19T17:07:41.223Z,9.1
2023-02-19T17:09:38.772Z,9
2023-02-19T17:17:36.994Z,9
2023-02-19T17:19:34.630Z,8.9
2023-02-19T17:21:32.177Z,8.9
2023-02-19T17:22:34.967Z,8.9
2023-02-19T17:26:30.104Z,8.8
2023-02-19T17:28:29.382Z,8.8
2023-02-19T17:32:32.336Z,8.8
2023-02-19T17:34:29.854Z,8.8
2023-02-19T17:38:25.000Z,8.8
2023-02-19T17:40:32.341Z,8.7
2023-02-19T17:42:20.132Z,8.8
2023-02-19T17:50:18.344Z,8.7
2023-02-19T17:56:11.078Z,8.6
2023-02-19T18:00:14.099Z,8.7
2023-02-19T18:02:11.677Z,8.5
2023-02-19T18:04:09.389Z,8.6
2023-02-19T18:10:02.009Z,8.5
2023-02-19T18:14:05.140Z,8.5
2023-02-19T18:16:02.611Z,8.5
2023-02-19T18:18:23.382Z,8.5
2023-02-19T18:20:20.956Z,8.4
2023-02-19T18:22:18.542Z,8.5
2023-02-19T18:32:14.310Z,8.5
2023-02-19T18:36:09.440Z,8.4
2023-02-19T18:38:14.887Z,8.4
2023-02-19T18:40:12.464Z,8.4
2023-02-19T18:42:10.047Z,8.3
2023-02-19T18:44:07.638Z,8.4
2023-02-19T18:48:02.793Z,8.4
2023-02-19T18:50:00.362Z,8.4
2023-02-19T18:52:05.850Z,8.4
2023-02-19T18:54:03.409Z,8.4
2023-02-19T18:56:00.971Z,8.3
2023-02-19T18:57:58.544Z,8.4
2023-02-19T18:59:56.139Z,8.4
2023-02-19T19:03:51.286Z,8.4
2023-02-19T19:05:56.734Z,8.3
2023-02-19T19:07:54.312Z,8.3
2023-02-19T19:09:51.936Z,8.3
2023-02-19T19:10:54.648Z,8.2
2023-02-19T19:12:52.218Z,8.2
2023-02-19T19:14:49.783Z,8.2
2023-02-19T19:18:52.830Z,8.1
2023-02-19T19:20:50.420Z,8.2
2023-02-19T19:24:45.557Z,8.1
2023-02-19T19:26:43.153Z,8.1
2023-02-19T19:28:40.732Z,8.1
2023-02-19T19:30:38.371Z,8.2
2023-02-19T19:32:43.771Z,8.2
2023-02-19T19:34:41.357Z,8.1
2023-02-19T19:38:36.517Z,8
2023-02-19T19:40:34.093Z,8
2023-02-19T19:42:31.683Z,7.9
2023-02-19T19:50:29.841Z,7.8
2023-02-19T19:52:27.399Z,7.7
2023-02-19T19:54:24.957Z,7.8
2023-02-19T19:58:20.109Z,7.6
2023-02-19T20:02:23.179Z,7.7
2023-02-19T20:04:20.736Z,7.6
2023-02-19T20:05:23.475Z,7.6
2023-02-19T20:07:21.042Z,7.5
2023-02-19T20:09:18.611Z,7.5
2023-02-19T20:11:16.173Z,7.4
2023-02-19T20:13:21.641Z,7.3
2023-02-19T20:15:19.229Z,7.4
2023-02-19T20:17:16.777Z,7.4
2023-02-19T20:19:14.347Z,7.3
2023-02-19T20:21:12.229Z,7.3
2023-02-19T20:23:09.491Z,7.3
2023-02-19T20:25:07.022Z,7.3
2023-02-19T20:27:12.516Z,7.2
2023-02-19T20:29:10.038Z,7.2
2023-02-19T20:33:05.105Z,7.2
2023-02-19T20:35:02.693Z,7.1
2023-02-19T20:37:00.226Z,7.1
2023-02-19T20:38:57.760Z,7
2023-02-19T20:41:03.228Z,6.9
2023-02-19T20:43:00.754Z,7
2023-02-19T20:44:58.308Z,7
2023-02-19T20:48:53.430Z,7
2023-02-19T20:50:50.966Z,6.8
2023-02-19T20:52:48.503Z,6.8
2023-02-19T20:56:51.545Z,6.8
2023-02-19T20:58:49.081Z,6.9
2023-02-19T20:59:51.819Z,6.8
2023-02-19T21:01:49.401Z,6.7
2023-02-19T21:07:50.523Z,6.6
2023-02-19T21:11:45.587Z,6.6
2023-02-19T21:13:43.170Z,6.6
2023-02-19T21:17:38.252Z,6.5
2023-02-19T21:19:35.815Z,6.5
2023-02-19T21:21:41.256Z,6.5
2023-02-19T21:23:38.807Z,6.5
2023-02-19T21:25:36.364Z,6.4
2023-02-19T21:27:33.917Z,6.4
2023-02-19T21:29:31.455Z,6.4
2023-02-19T21:31:29.075Z,6.5
2023-02-19T21:33:26.542Z,6.5
2023-02-19T21:35:31.953Z,6.4
2023-02-19T21:37:29.530Z,6.5
2023-02-19T21:39:27.053Z,6.5
2023-02-19T21:41:24.613Z,6.5
2023-02-19T21:43:22.146Z,6.5
2023-02-19T21:45:19.716Z,6.5
2023-02-19T21:47:17.235Z,6.5
2023-02-19T21:49:22.650Z,6.4
2023-02-19T21:51:20.212Z,6.5
2023-02-19T21:53:17.754Z,6.5
2023-02-19T21:55:57.421Z,6.5
2023-02-19T21:57:42.201Z,6.5
2023-02-19T21:59:39.749Z,6.5
2023-02-19T22:05:40.343Z,6.5
2023-02-19T22:07:37.886Z,6.5
2023-02-19T22:11:33.001Z,6.4
2023-02-19T22:13:30.512Z,6.4
2023-02-19T22:15:35.955Z,6.4
2023-02-19T22:17:33.500Z,6.4
2023-02-19T22:19:31.067Z,6.4
2023-02-19T22:21:28.587Z,6.4
2023-02-19T22:25:23.667Z,6.3
2023-02-19T22:27:21.208Z,6.3
2023-02-19T22:35:19.297Z,6.3
2023-02-19T22:37:16.831Z,6.4
2023-02-19T22:39:14.382Z,6.3
2023-02-19T22:41:11.911Z,6.2
2023-02-19T22:43:17.329Z,6.3
2023-02-19T22:45:14.885Z,6.3
2023-02-19T22:47:12.425Z,6.3
2023-02-19T22:50:12.693Z,6.3
2023-02-19T22:52:10.205Z,6.3
2023-02-19T22:54:07.754Z,6.2
2023-02-19T22:56:13.730Z,6.3
2023-02-19T22:58:10.718Z,6.4
2023-02-19T23:00:08.474Z,6.4
2023-02-19T23:02:05.793Z,6.3
2023-02-19T23:04:03.377Z,6.4
2023-02-19T23:06:00.901Z,6.4
2023-02-19T23:07:58.447Z,6.4
2023-02-19T23:10:05.378Z,6.5
2023-02-19T23:14:00.484Z,6.5
2023-02-19T23:15:58.037Z,6.5
2023-02-19T23:21:50.652Z,6.5
2023-02-19T23:25:53.649Z,6.5
2023-02-19T23:27:51.173Z,6.5
2023-02-19T23:29:48.730Z,6.6
2023-02-19T23:31:46.535Z,6.6
2023-02-19T23:33:43.836Z,6.5
2023-02-19T23:35:41.389Z,6.6
2023-02-19T23:37:46.813Z,6.6
2023-02-19T23:39:44.357Z,6.7
2023-02-19T23:42:44.648Z,6.6
2023-02-19T23:44:42.194Z,6.6
2023-02-19T23:48:37.301Z,6.6
2023-02-19T23:50:42.758Z,6.6
2023-02-19T23:52:40.280Z,6.6
2023-02-19T23:54:37.830Z,6.6
2023-02-19T23:56:35.405Z,6.6
2023-02-19T23:58:32.916Z,6.7
